sensor_id;sensor_type;location;lat;lon;timestamp;pressure;altitude;pressure_sealevel;temperature;humidity
17764;BME280;22245;52.832;13.816;2024-01-06T00:00:30;100408.13;;;1.15;94.05
17764;BME280;22245;52.832;13.816;2024-01-06T00:03:52;100397.31;;;1.21;93.87
17764;BME280;22245;52.832;13.816;2024-01-06T00:07:15;100401.97;;;1.16;94.04
17764;BME280;22245;52.832;13.816;2024-01-06T00:10:36;100390.84;;;1.11;94.50
17764;BME280;22245;52.832;13.816;2024-01-06T00:13:58;100392.63;;;1.10;94.26
17764;BME280;22245;52.832;13.816;2024-01-06T00:17:19;100401.31;;;1.11;94.54
17764;BME280;22245;52.832;13.816;2024-01-06T00:20:40;100392.25;;;1.18;94.39
17764;BME280;22245;52.832;13.816;2024-01-06T00:24:04;100401.66;;;1.22;93.77
17764;BME280;22245;52.832;13.816;2024-01-06T00:27:26;100396.25;;;1.08;94.29
17764;BME280;22245;52.832;13.816;2024-01-06T00:30:47;100409.97;;;1.13;94.43
17764;BME280;22245;52.832;13.816;2024-01-06T00:34:09;100397.78;;;1.12;93.93
17764;BME280;22245;52.832;13.816;2024-01-06T00:37:31;100406.19;;;1.19;93.90
17764;BME280;22245;52.832;13.816;2024-01-06T00:40:53;100404.50;;;1.18;93.44
17764;BME280;22245;52.832;13.816;2024-01-06T00:44:15;100411.81;;;1.11;93.77
17764;BME280;22245;52.832;13.816;2024-01-06T00:47:36;100410.06;;;1.11;94.67
17764;BME280;22245;52.832;13.816;2024-01-06T00:50:59;100413.28;;;1.17;94.54
17764;BME280;22245;52.832;13.816;2024-01-06T00:54:20;100413.22;;;1.18;94.63
17764;BME280;22245;52.832;13.816;2024-01-06T00:57:44;100406.66;;;1.09;94.68
17764;BME280;22245;52.832;13.816;2024-01-06T01:01:05;100411.03;;;1.09;94.90
17764;BME280;22245;52.832;13.816;2024-01-06T01:04:27;100413.50;;;1.12;94.63
17764;BME280;22245;52.832;13.816;2024-01-06T01:07:49;100421.25;;;1.15;94.68
17764;BME280;22245;52.832;13.816;2024-01-06T01:11:10;100425.47;;;1.18;94.10
17764;BME280;22245;52.832;13.816;2024-01-06T01:14:34;100436.69;;;1.21;93.91
17764;BME280;22245;52.832;13.816;2024-01-06T01:17:56;100438.81;;;1.13;93.56
17764;BME280;22245;52.832;13.816;2024-01-06T01:21:18;100449.31;;;1.13;94.07
17764;BME280;22245;52.832;13.816;2024-01-06T01:24:39;100449.94;;;1.18;93.72
17764;BME280;22245;52.832;13.816;2024-01-06T01:28:01;100455.25;;;1.17;94.36
17764;BME280;22245;52.832;13.816;2024-01-06T01:31:23;100452.41;;;1.21;93.71
17764;BME280;22245;52.832;13.816;2024-01-06T01:34:45;100448.88;;;1.22;93.34
17764;BME280;22245;52.832;13.816;2024-01-06T01:38:07;100451.03;;;1.14;93.87
17764;BME280;22245;52.832;13.816;2024-01-06T01:41:28;100461.38;;;1.17;93.51
17764;BME280;22245;52.832;13.816;2024-01-06T01:44:49;100456.13;;;1.17;93.66
17764;BME280;22245;52.832;13.816;2024-01-06T01:48:12;100446.56;;;1.16;93.45
17764;BME280;22245;52.832;13.816;2024-01-06T01:51:34;100452.56;;;1.18;93.26
17764;BME280;22245;52.832;13.816;2024-01-06T01:54:57;100461.28;;;1.19;92.92
17764;BME280;22245;52.832;13.816;2024-01-06T01:58:18;100451.16;;;1.11;93.81
17764;BME280;22245;52.832;13.816;2024-01-06T02:01:40;100450.22;;;1.12;93.54
17764;BME280;22245;52.832;13.816;2024-01-06T02:05:04;100457.97;;;1.15;93.19
17764;BME280;22245;52.832;13.816;2024-01-06T02:08:26;100464.75;;;1.19;93.36
17764;BME280;22245;52.832;13.816;2024-01-06T02:11:47;100468.91;;;1.06;93.75
17764;BME280;22245;52.832;13.816;2024-01-06T02:15:09;100483.81;;;1.05;93.41
17764;BME280;22245;52.832;13.816;2024-01-06T02:18:30;100477.84;;;1.01;93.51
17764;BME280;22245;52.832;13.816;2024-01-06T02:21:53;100477.63;;;1.06;94.27
17764;BME280;22245;52.832;13.816;2024-01-06T02:25:15;100483.81;;;1.05;94.42
17764;BME280;22245;52.832;13.816;2024-01-06T02:28:36;100481.88;;;1.09;94.40
17764;BME280;22245;52.832;13.816;2024-01-06T02:31:58;100488.03;;;1.08;93.98
17764;BME280;22245;52.832;13.816;2024-01-06T02:35:20;100479.94;;;1.12;93.72
17764;BME280;22245;52.832;13.816;2024-01-06T02:38:43;100480.94;;;1.10;93.75
17764;BME280;22245;52.832;13.816;2024-01-06T02:42:05;100488.28;;;1.03;94.30
17764;BME280;22245;52.832;13.816;2024-01-06T02:45:27;100489.81;;;1.07;95.17
17764;BME280;22245;52.832;13.816;2024-01-06T02:48:48;100488.81;;;1.10;94.65
17764;BME280;22245;52.832;13.816;2024-01-06T02:52:10;100485.97;;;1.14;94.05
17764;BME280;22245;52.832;13.816;2024-01-06T02:55:33;100484.50;;;1.09;94.31
17764;BME280;22245;52.832;13.816;2024-01-06T02:58:54;100494.38;;;1.04;95.07
17764;BME280;22245;52.832;13.816;2024-01-06T03:02:16;100496.84;;;1.07;94.21
17764;BME280;22245;52.832;13.816;2024-01-06T03:05:37;100498.53;;;1.08;94.16
17764;BME280;22245;52.832;13.816;2024-01-06T03:08:59;100489.56;;;1.12;94.10
17764;BME280;22245;52.832;13.816;2024-01-06T03:12:22;100489.66;;;1.10;94.23
17764;BME280;22245;52.832;13.816;2024-01-06T03:15:43;100483.34;;;1.14;93.65
17764;BME280;22245;52.832;13.816;2024-01-06T03:19:06;100478.31;;;1.10;94.07
17764;BME280;22245;52.832;13.816;2024-01-06T03:22:28;100485.34;;;1.09;94.59
17764;BME280;22245;52.832;13.816;2024-01-06T03:25:50;100486.03;;;1.13;93.89
17764;BME280;22245;52.832;13.816;2024-01-06T03:29:12;100498.31;;;1.12;93.29
17764;BME280;22245;52.832;13.816;2024-01-06T03:32:34;100500.88;;;1.14;93.60
17764;BME280;22245;52.832;13.816;2024-01-06T03:35:55;100506.75;;;1.19;93.38
17764;BME280;22245;52.832;13.816;2024-01-06T03:39:17;100524.16;;;1.20;92.93
17764;BME280;22245;52.832;13.816;2024-01-06T03:42:38;100518.44;;;1.12;93.18
17764;BME280;22245;52.832;13.816;2024-01-06T03:46:01;100519.44;;;1.09;93.59
17764;BME280;22245;52.832;13.816;2024-01-06T03:49:23;100524.59;;;1.11;93.56
17764;BME280;22245;52.832;13.816;2024-01-06T03:52:44;100525.53;;;1.10;93.33
17764;BME280;22245;52.832;13.816;2024-01-06T03:56:06;100534.41;;;1.07;93.62
17764;BME280;22245;52.832;13.816;2024-01-06T03:59:28;100536.94;;;1.09;93.09
17764;BME280;22245;52.832;13.816;2024-01-06T04:02:51;100533.41;;;1.10;93.06
17764;BME280;22245;52.832;13.816;2024-01-06T04:06:12;100546.66;;;1.07;93.61
17764;BME280;22245;52.832;13.816;2024-01-06T04:09:35;100542.34;;;1.06;92.88
17764;BME280;22245;52.832;13.816;2024-01-06T04:12:56;100537.81;;;1.09;92.57
17764;BME280;22245;52.832;13.816;2024-01-06T04:16:18;100539.72;;;1.06;92.04
17764;BME280;22245;52.832;13.816;2024-01-06T04:19:42;100539.09;;;1.00;93.17
17764;BME280;22245;52.832;13.816;2024-01-06T04:23:03;100543.50;;;1.00;92.65
17764;BME280;22245;52.832;13.816;2024-01-06T04:26:25;100543.88;;;1.10;92.36
17764;BME280;22245;52.832;13.816;2024-01-06T04:29:46;100545.88;;;1.05;92.74
17764;BME280;22245;52.832;13.816;2024-01-06T04:33:07;100551.91;;;1.07;91.86
17764;BME280;22245;52.832;13.816;2024-01-06T04:36:30;100557.31;;;1.04;92.22
17764;BME280;22245;52.832;13.816;2024-01-06T04:39:52;100557.16;;;1.07;92.45
17764;BME280;22245;52.832;13.816;2024-01-06T04:43:14;100564.25;;;1.05;92.21
17764;BME280;22245;52.832;13.816;2024-01-06T04:46:35;100564.56;;;0.98;93.04
17764;BME280;22245;52.832;13.816;2024-01-06T04:49:57;100569.88;;;0.97;93.09
17764;BME280;22245;52.832;13.816;2024-01-06T04:53:19;100578.69;;;0.96;93.07
17764;BME280;22245;52.832;13.816;2024-01-06T04:56:41;100584.13;;;0.91;93.43
17764;BME280;22245;52.832;13.816;2024-01-06T05:00:03;100589.22;;;0.94;93.31
17764;BME280;22245;52.832;13.816;2024-01-06T05:03:25;100591.69;;;0.97;93.48
17764;BME280;22245;52.832;13.816;2024-01-06T05:06:46;100590.72;;;1.00;92.65
17764;BME280;22245;52.832;13.816;2024-01-06T05:10:10;100596.66;;;0.84;93.04
17764;BME280;22245;52.832;13.816;2024-01-06T05:13:31;100604.53;;;0.84;93.29
17764;BME280;22245;52.832;13.816;2024-01-06T05:16:52;100601.00;;;0.85;92.72
17764;BME280;22245;52.832;13.816;2024-01-06T05:20:14;100604.47;;;0.86;93.14
17764;BME280;22245;52.832;13.816;2024-01-06T05:23:35;100611.72;;;0.81;93.19
17764;BME280;22245;52.832;13.816;2024-01-06T05:26:58;100613.03;;;0.90;92.25
17764;BME280;22245;52.832;13.816;2024-01-06T05:30:20;100613.19;;;0.86;93.11
17764;BME280;22245;52.832;13.816;2024-01-06T05:33:42;100613.94;;;0.89;93.35
17764;BME280;22245;52.832;13.816;2024-01-06T05:37:04;100622.97;;;0.83;93.22
17764;BME280;22245;52.832;13.816;2024-01-06T05:40:25;100626.28;;;0.86;92.42
17764;BME280;22245;52.832;13.816;2024-01-06T05:43:48;100633.38;;;0.84;92.46
17764;BME280;22245;52.832;13.816;2024-01-06T05:47:09;100643.16;;;0.81;91.56
17764;BME280;22245;52.832;13.816;2024-01-06T05:50:31;100651.22;;;0.76;91.95
17764;BME280;22245;52.832;13.816;2024-01-06T05:53:52;100646.56;;;0.83;91.15
17764;BME280;22245;52.832;13.816;2024-01-06T05:57:14;100661.53;;;0.81;91.67
17764;BME280;22245;52.832;13.816;2024-01-06T06:00:38;100660.75;;;0.79;92.50
17764;BME280;22245;52.832;13.816;2024-01-06T06:04:00;100673.06;;;0.77;91.75
17764;BME280;22245;52.832;13.816;2024-01-06T06:07:22;100681.56;;;0.82;90.80
17764;BME280;22245;52.832;13.816;2024-01-06T06:10:43;100692.13;;;0.80;90.82
17764;BME280;22245;52.832;13.816;2024-01-06T06:14:21;100701.00;;;0.78;90.29
17764;BME280;22245;52.832;13.816;2024-01-06T06:17:48;100706.34;;;0.75;90.62
17764;BME280;22245;52.832;13.816;2024-01-06T06:21:10;100703.81;;;0.73;90.21
17764;BME280;22245;52.832;13.816;2024-01-06T06:24:31;100711.88;;;0.68;90.32
17764;BME280;22245;52.832;13.816;2024-01-06T06:27:53;100714.63;;;0.65;91.20
17764;BME280;22245;52.832;13.816;2024-01-06T06:31:15;100719.81;;;0.67;90.73
17764;BME280;22245;52.832;13.816;2024-01-06T06:34:38;100719.09;;;0.63;91.06
17764;BME280;22245;52.832;13.816;2024-01-06T06:37:59;100728.50;;;0.67;90.50
17764;BME280;22245;52.832;13.816;2024-01-06T06:41:21;100735.81;;;0.61;91.33
17764;BME280;22245;52.832;13.816;2024-01-06T06:44:43;100749.44;;;0.69;90.15
17764;BME280;22245;52.832;13.816;2024-01-06T06:48:05;100758.78;;;0.75;89.29
17764;BME280;22245;52.832;13.816;2024-01-06T06:51:28;100762.72;;;0.64;90.46
17764;BME280;22245;52.832;13.816;2024-01-06T06:54:50;100753.25;;;0.62;90.69
17764;BME280;22245;52.832;13.816;2024-01-06T06:58:13;100766.59;;;0.55;91.08
17764;BME280;22245;52.832;13.816;2024-01-06T07:01:34;100763.00;;;0.58;90.94
17764;BME280;22245;52.832;13.816;2024-01-06T07:04:57;100763.72;;;0.62;91.51
17764;BME280;22245;52.832;13.816;2024-01-06T07:08:20;100764.66;;;0.61;91.22
17764;BME280;22245;52.832;13.816;2024-01-06T07:11:41;100771.91;;;0.54;91.13
17764;BME280;22245;52.832;13.816;2024-01-06T07:15:04;100781.34;;;0.58;90.19
17764;BME280;22245;52.832;13.816;2024-01-06T07:18:27;100789.34;;;0.55;91.55
17764;BME280;22245;52.832;13.816;2024-01-06T07:21:48;100810.31;;;0.55;91.08
17764;BME280;22245;52.832;13.816;2024-01-06T07:25:12;100810.44;;;0.52;90.78
17764;BME280;22245;52.832;13.816;2024-01-06T07:28:33;100812.28;;;0.50;90.18
17764;BME280;22245;52.832;13.816;2024-01-06T07:31:54;100824.38;;;0.52;90.65
17764;BME280;22245;52.832;13.816;2024-01-06T07:35:16;100812.84;;;0.56;89.80
17764;BME280;22245;52.832;13.816;2024-01-06T07:38:38;100811.88;;;0.59;89.88
17764;BME280;22245;52.832;13.816;2024-01-06T07:42:00;100818.94;;;0.57;89.94
17764;BME280;22245;52.832;13.816;2024-01-06T07:45:23;100808.59;;;0.54;90.04
17764;BME280;22245;52.832;13.816;2024-01-06T07:48:44;100827.72;;;0.56;89.69
17764;BME280;22245;52.832;13.816;2024-01-06T07:52:06;100835.06;;;0.48;89.53
17764;BME280;22245;52.832;13.816;2024-01-06T07:55:27;100829.16;;;0.42;90.40
17764;BME280;22245;52.832;13.816;2024-01-06T07:58:50;100826.59;;;0.41;90.04
17764;BME280;22245;52.832;13.816;2024-01-06T08:02:14;100833.22;;;0.50;88.78
17764;BME280;22245;52.832;13.816;2024-01-06T08:05:35;100838.78;;;0.42;88.48
17764;BME280;22245;52.832;13.816;2024-01-06T08:08:57;100847.44;;;0.44;89.40
17764;BME280;22245;52.832;13.816;2024-01-06T08:12:18;100850.31;;;0.38;89.18
17764;BME280;22245;52.832;13.816;2024-01-06T08:15:41;100857.25;;;0.39;90.13
17764;BME280;22245;52.832;13.816;2024-01-06T08:19:03;100852.00;;;0.39;89.54
17764;BME280;22245;52.832;13.816;2024-01-06T08:22:25;100864.94;;;0.43;88.49
17764;BME280;22245;52.832;13.816;2024-01-06T08:25:46;100864.44;;;0.34;89.21
17764;BME280;22245;52.832;13.816;2024-01-06T08:29:08;100879.44;;;0.30;89.39
17764;BME280;22245;52.832;13.816;2024-01-06T08:32:30;100873.22;;;0.33;89.39
17764;BME280;22245;52.832;13.816;2024-01-06T08:35:52;100887.28;;;0.30;89.35
17764;BME280;22245;52.832;13.816;2024-01-06T08:39:13;100882.84;;;0.32;89.79
17764;BME280;22245;52.832;13.816;2024-01-06T08:42:35;100887.13;;;0.35;89.71
17764;BME280;22245;52.832;13.816;2024-01-06T08:45:56;100899.31;;;0.36;89.23
17764;BME280;22245;52.832;13.816;2024-01-06T08:49:19;100903.75;;;0.34;89.68
17764;BME280;22245;52.832;13.816;2024-01-06T08:52:41;100899.44;;;0.33;89.65
17764;BME280;22245;52.832;13.816;2024-01-06T08:56:03;100904.53;;;0.36;88.56
17764;BME280;22245;52.832;13.816;2024-01-06T08:59:26;100913.69;;;0.25;89.78
17764;BME280;22245;52.832;13.816;2024-01-06T09:02:47;100916.09;;;0.30;89.89
17764;BME280;22245;52.832;13.816;2024-01-06T09:06:11;100922.25;;;0.29;89.93
17764;BME280;22245;52.832;13.816;2024-01-06T09:09:33;100933.41;;;0.34;89.68
17764;BME280;22245;52.832;13.816;2024-01-06T09:12:54;100942.06;;;0.36;89.02
17764;BME280;22245;52.832;13.816;2024-01-06T09:16:16;100950.50;;;0.45;89.74
17764;BME280;22245;52.832;13.816;2024-01-06T09:19:38;100955.78;;;0.43;88.89
17764;BME280;22245;52.832;13.816;2024-01-06T09:23:02;100955.78;;;0.43;88.82
17764;BME280;22245;52.832;13.816;2024-01-06T09:26:23;100958.34;;;0.45;88.65
17764;BME280;22245;52.832;13.816;2024-01-06T09:29:45;100962.69;;;0.46;88.80
17764;BME280;22245;52.832;13.816;2024-01-06T09:33:06;100968.09;;;0.41;89.01
17764;BME280;22245;52.832;13.816;2024-01-06T09:36:30;100967.13;;;0.43;88.56
17764;BME280;22245;52.832;13.816;2024-01-06T09:39:53;100979.19;;;0.48;88.00
17764;BME280;22245;52.832;13.816;2024-01-06T09:43:15;100979.91;;;0.51;88.92
17764;BME280;22245;52.832;13.816;2024-01-06T09:46:38;100985.34;;;0.47;88.57
17764;BME280;22245;52.832;13.816;2024-01-06T09:50:01;100987.78;;;0.51;87.62
17764;BME280;22245;52.832;13.816;2024-01-06T09:53:28;100988.56;;;0.53;88.37
17764;BME280;22245;52.832;13.816;2024-01-06T09:56:56;100985.09;;;0.53;88.01
17764;BME280;22245;52.832;13.816;2024-01-06T10:00:18;100994.50;;;0.59;89.29
17764;BME280;22245;52.832;13.816;2024-01-06T10:03:40;100996.13;;;0.61;89.48
17764;BME280;22245;52.832;13.816;2024-01-06T10:07:02;100995.88;;;0.67;89.82
17764;BME280;22245;52.832;13.816;2024-01-06T10:10:24;101000.09;;;0.71;88.99
17764;BME280;22245;52.832;13.816;2024-01-06T10:13:48;100999.50;;;0.65;87.58
17764;BME280;22245;52.832;13.816;2024-01-06T10:17:09;101012.41;;;0.69;87.27
17764;BME280;22245;52.832;13.816;2024-01-06T10:20:31;101005.72;;;0.62;88.28
17764;BME280;22245;52.832;13.816;2024-01-06T10:23:53;101009.25;;;0.61;87.66
17764;BME280;22245;52.832;13.816;2024-01-06T10:27:16;101012.59;;;0.65;87.90
17764;BME280;22245;52.832;13.816;2024-01-06T10:30:39;101018.69;;;0.65;87.60
17764;BME280;22245;52.832;13.816;2024-01-06T10:34:00;101018.88;;;0.61;87.73
17764;BME280;22245;52.832;13.816;2024-01-06T10:37:23;101029.41;;;0.59;86.88
17764;BME280;22245;52.832;13.816;2024-01-06T10:40:57;101040.81;;;0.58;87.28
17764;BME280;22245;52.832;13.816;2024-01-06T10:44:19;101035.56;;;0.58;87.28
17764;BME280;22245;52.832;13.816;2024-01-06T10:47:43;101040.81;;;0.58;87.73
17764;BME280;22245;52.832;13.816;2024-01-06T10:51:05;101027.59;;;0.61;86.98
17764;BME280;22245;52.832;13.816;2024-01-06T10:54:29;101020.59;;;0.62;87.00
17764;BME280;22245;52.832;13.816;2024-01-06T10:57:51;101017.09;;;0.61;86.53
17764;BME280;22245;52.832;13.816;2024-01-06T11:01:15;101028.59;;;0.59;86.14
17764;BME280;22245;52.832;13.816;2024-01-06T11:04:46;101026.75;;;0.61;87.23
17764;BME280;22245;52.832;13.816;2024-01-06T11:08:08;101026.06;;;0.55;86.31
17764;BME280;22245;52.832;13.816;2024-01-06T11:11:31;101028.75;;;0.54;87.48
17764;BME280;22245;52.832;13.816;2024-01-06T11:14:53;101020.81;;;0.55;87.34
17764;BME280;22245;52.832;13.816;2024-01-06T11:18:32;101025.22;;;0.55;87.24
17764;BME280;22245;52.832;13.816;2024-01-06T11:21:57;101023.38;;;0.57;86.39
17764;BME280;22245;52.832;13.816;2024-01-06T11:25:40;101025.88;;;0.60;86.38
17764;BME280;22245;52.832;13.816;2024-01-06T11:29:02;101032.00;;;0.61;86.12
17764;BME280;22245;52.832;13.816;2024-01-06T11:32:27;101024.94;;;0.63;86.15
17764;BME280;22245;52.832;13.816;2024-01-06T11:35:48;101021.31;;;0.65;86.30
17764;BME280;22245;52.832;13.816;2024-01-06T11:39:36;101027.66;;;0.60;85.46
17764;BME280;22245;52.832;13.816;2024-01-06T11:43:04;101031.28;;;0.55;86.36
17764;BME280;22245;52.832;13.816;2024-01-06T11:46:27;101039.13;;;0.57;85.28
17764;BME280;22245;52.832;13.816;2024-01-06T11:49:54;101036.53;;;0.55;85.69
17764;BME280;22245;52.832;13.816;2024-01-06T11:53:16;101039.00;;;0.60;85.36
17764;BME280;22245;52.832;13.816;2024-01-06T11:56:39;101044.09;;;0.63;85.48
17764;BME280;22245;52.832;13.816;2024-01-06T12:00:00;101045.50;;;0.50;85.42
17764;BME280;22245;52.832;13.816;2024-01-06T12:03:26;101038.19;;;0.58;85.33
17764;BME280;22245;52.832;13.816;2024-01-06T12:06:49;101039.13;;;0.57;84.82
17764;BME280;22245;52.832;13.816;2024-01-06T12:10:10;101033.91;;;0.55;85.30
17764;BME280;22245;52.832;13.816;2024-01-06T12:13:35;101037.53;;;0.53;85.40
17764;BME280;22245;52.832;13.816;2024-01-06T12:16:58;101039.13;;;0.57;85.57
17764;BME280;22245;52.832;13.816;2024-01-06T12:20:23;101033.91;;;0.55;84.85
17764;BME280;22245;52.832;13.816;2024-01-06T12:23:44;101045.56;;;0.48;84.36
17764;BME280;22245;52.832;13.816;2024-01-06T12:27:07;101038.56;;;0.49;84.90
17764;BME280;22245;52.832;13.816;2024-01-06T12:30:33;101051.66;;;0.49;84.15
17764;BME280;22245;52.832;13.816;2024-01-06T12:33:56;101057.75;;;0.49;85.13
17764;BME280;22245;52.832;13.816;2024-01-06T12:37:18;101059.53;;;0.49;84.65
17764;BME280;22245;52.832;13.816;2024-01-06T12:40:40;101056.78;;;0.52;84.34
17764;BME280;22245;52.832;13.816;2024-01-06T12:44:01;101058.72;;;0.47;83.99
17764;BME280;22245;52.832;13.816;2024-01-06T12:47:24;101062.25;;;0.46;84.45
17764;BME280;22245;52.832;13.816;2024-01-06T12:50:46;101065.72;;;0.46;85.50
17764;BME280;22245;52.832;13.816;2024-01-06T12:54:07;101063.97;;;0.47;84.54
17764;BME280;22245;52.832;13.816;2024-01-06T12:57:29;101063.97;;;0.47;83.99
17764;BME280;22245;52.832;13.816;2024-01-06T13:00:50;101078.53;;;0.54;83.30
17764;BME280;22245;52.832;13.816;2024-01-06T13:04:14;101079.22;;;0.59;83.21
17764;BME280;22245;52.832;13.816;2024-01-06T13:07:35;101077.34;;;0.63;83.48
17764;BME280;22245;52.832;13.816;2024-01-06T13:10:58;101090.66;;;0.56;82.81
17764;BME280;22245;52.832;13.816;2024-01-06T13:14:22;101092.50;;;0.54;83.28
17764;BME280;22245;52.832;13.816;2024-01-06T13:17:44;101085.84;;;0.46;84.03
17764;BME280;22245;52.832;13.816;2024-01-06T13:21:08;101096.44;;;0.42;83.53
17764;BME280;22245;52.832;13.816;2024-01-06T13:24:29;101097.13;;;0.48;82.78
17764;BME280;22245;52.832;13.816;2024-01-06T13:27:51;101107.78;;;0.43;83.02
17764;BME280;22245;52.832;13.816;2024-01-06T13:31:13;101104.06;;;0.49;83.43
17764;BME280;22245;52.832;13.816;2024-01-06T13:34:35;101110.91;;;0.53;83.03
17764;BME280;22245;52.832;13.816;2024-01-06T13:38:00;101122.34;;;0.50;83.28
17764;BME280;22245;52.832;13.816;2024-01-06T13:41:24;101132.66;;;0.55;82.81
17764;BME280;22245;52.832;13.816;2024-01-06T13:44:45;101130.28;;;0.49;82.61
17764;BME280;22245;52.832;13.816;2024-01-06T13:48:08;101138.81;;;0.54;82.96
17764;BME280;22245;52.832;13.816;2024-01-06T13:51:30;101138.59;;;0.60;82.64
17764;BME280;22245;52.832;13.816;2024-01-06T13:54:54;101147.25;;;0.62;81.77
17764;BME280;22245;52.832;13.816;2024-01-06T13:58:16;101149.03;;;0.62;81.77
17764;BME280;22245;52.832;13.816;2024-01-06T14:01:39;101154.44;;;0.57;82.41
17764;BME280;22245;52.832;13.816;2024-01-06T14:05:01;101155.31;;;0.57;81.96
17764;BME280;22245;52.832;13.816;2024-01-06T14:08:22;101151.94;;;0.54;81.57
17764;BME280;22245;52.832;13.816;2024-01-06T14:11:46;101155.34;;;0.56;81.64
17764;BME280;22245;52.832;13.816;2024-01-06T14:15:08;101157.97;;;0.56;81.30
17764;BME280;22245;52.832;13.816;2024-01-06T14:18:30;101159.56;;;0.60;81.77
17764;BME280;22245;52.832;13.816;2024-01-06T14:21:52;101152.72;;;0.56;81.06
17764;BME280;22245;52.832;13.816;2024-01-06T14:25:15;101159.69;;;0.57;81.04
17764;BME280;22245;52.832;13.816;2024-01-06T14:28:39;101163.25;;;0.54;80.25
17764;BME280;22245;52.832;13.816;2024-01-06T14:32:00;101167.66;;;0.54;80.26
17764;BME280;22245;52.832;13.816;2024-01-06T14:35:22;101178.13;;;0.54;80.12
17764;BME280;22245;52.832;13.816;2024-01-06T14:38:43;101185.09;;;0.55;80.37
17764;BME280;22245;52.832;13.816;2024-01-06T14:42:05;101178.72;;;0.62;79.85
17764;BME280;22245;52.832;13.816;2024-01-06T14:45:28;101185.78;;;0.60;80.53
17764;BME280;22245;52.832;13.816;2024-01-06T14:48:50;101203.09;;;0.64;79.74
17764;BME280;22245;52.832;13.816;2024-01-06T14:52:13;101195.41;;;0.60;79.66
17764;BME280;22245;52.832;13.816;2024-01-06T14:55:35;101204.00;;;0.63;79.82
17764;BME280;22245;52.832;13.816;2024-01-06T14:58:58;101205.69;;;0.66;79.20
17764;BME280;22245;52.832;13.816;2024-01-06T15:02:21;101202.03;;;0.70;79.54
17764;BME280;22245;52.832;13.816;2024-01-06T15:05:42;101220.66;;;0.62;79.24
17764;BME280;22245;52.832;13.816;2024-01-06T15:09:04;101221.63;;;0.60;79.59
17764;BME280;22245;52.832;13.816;2024-01-06T15:12:25;101232.97;;;0.60;79.05
17764;BME280;22245;52.832;13.816;2024-01-06T15:15:47;101242.59;;;0.60;79.12
17764;BME280;22245;52.832;13.816;2024-01-06T15:19:15;101247.78;;;0.61;78.74
17764;BME280;22245;52.832;13.816;2024-01-06T15:22:37;101253.09;;;0.60;78.62
17764;BME280;22245;52.832;13.816;2024-01-06T15:26:00;101253.81;;;0.63;78.27
17764;BME280;22245;52.832;13.816;2024-01-06T15:29:24;101255.53;;;0.64;78.07
17764;BME280;22245;52.832;13.816;2024-01-06T15:32:46;101260.72;;;0.66;77.77
17764;BME280;22245;52.832;13.816;2024-01-06T15:36:10;101260.94;;;0.60;77.29
17764;BME280;22245;52.832;13.816;2024-01-06T15:39:31;101264.47;;;0.59;78.62
17764;BME280;22245;52.832;13.816;2024-01-06T15:42:53;101264.47;;;0.59;78.88
17764;BME280;22245;52.832;13.816;2024-01-06T15:46:14;101267.84;;;0.62;78.39
17764;BME280;22245;52.832;13.816;2024-01-06T15:49:37;101275.69;;;0.62;78.02
17764;BME280;22245;52.832;13.816;2024-01-06T15:53:00;101277.63;;;0.57;78.02
17764;BME280;22245;52.832;13.816;2024-01-06T15:56:21;101290.72;;;0.57;78.18
17764;BME280;22245;52.832;13.816;2024-01-06T15:59:43;101285.00;;;0.46;78.41
17764;BME280;22245;52.832;13.816;2024-01-06T16:03:05;101293.81;;;0.43;80.19
17764;BME280;22245;52.832;13.816;2024-01-06T16:06:27;101295.63;;;0.41;81.00
17764;BME280;22245;52.832;13.816;2024-01-06T16:09:50;101302.56;;;0.43;81.45
17764;BME280;22245;52.832;13.816;2024-01-06T16:13:12;101290.38;;;0.42;81.16
17764;BME280;22245;52.832;13.816;2024-01-06T16:16:33;101303.50;;;0.41;81.97
17764;BME280;22245;52.832;13.816;2024-01-06T16:19:54;101300.03;;;0.40;81.50
17764;BME280;22245;52.832;13.816;2024-01-06T16:23:16;101303.50;;;0.41;83.00
17764;BME280;22245;52.832;13.816;2024-01-06T16:26:39;101299.88;;;0.45;81.49
17764;BME280;22245;52.832;13.816;2024-01-06T16:30:01;101302.50;;;0.45;81.88
17764;BME280;22245;52.832;13.816;2024-01-06T16:33:22;101301.88;;;0.38;83.02
17764;BME280;22245;52.832;13.816;2024-01-06T16:36:44;101318.38;;;0.40;82.84
17764;BME280;22245;52.832;13.816;2024-01-06T16:40:07;101308.81;;;0.39;82.02
17764;BME280;22245;52.832;13.816;2024-01-06T16:43:32;101325.63;;;0.32;82.73
17764;BME280;22245;52.832;13.816;2024-01-06T16:46:57;101321.28;;;0.31;81.62
17764;BME280;22245;52.832;13.816;2024-01-06T16:50:19;101320.38;;;0.32;82.07
17764;BME280;22245;52.832;13.816;2024-01-06T16:53:40;101324.91;;;0.27;81.83
17764;BME280;22245;52.832;13.816;2024-01-06T16:57:02;101325.69;;;0.31;83.32
17764;BME280;22245;52.832;13.816;2024-01-06T17:00:25;101329.22;;;0.30;82.41
17764;BME280;22245;52.832;13.816;2024-01-06T17:03:48;101333.69;;;0.26;83.10
17764;BME280;22245;52.832;13.816;2024-01-06T17:07:10;101344.38;;;0.20;82.22
17764;BME280;22245;52.832;13.816;2024-01-06T17:10:32;101347.13;;;0.15;83.32
17764;BME280;22245;52.832;13.816;2024-01-06T17:13:53;101350.75;;;0.11;82.65
17764;BME280;22245;52.832;13.816;2024-01-06T17:17:16;101347.28;;;0.10;82.70
17764;BME280;22245;52.832;13.816;2024-01-06T17:20:38;101354.94;;;0.17;82.02
17764;BME280;22245;52.832;13.816;2024-01-06T17:24:00;101363.75;;;0.14;82.25
17764;BME280;22245;52.832;13.816;2024-01-06T17:27:21;101361.94;;;0.16;80.70
17764;BME280;22245;52.832;13.816;2024-01-06T17:30:43;101359.31;;;0.16;81.14
17764;BME280;22245;52.832;13.816;2024-01-06T17:34:06;101365.44;;;0.17;82.03
17764;BME280;22245;52.832;13.816;2024-01-06T17:37:28;101373.41;;;0.12;81.58